createdAt,value
2022-11-29T00:01:20.663Z,7.91
2022-11-29T00:03:48.591Z,7.79
2022-11-29T00:06:21.163Z,7.83
2022-11-29T00:08:48.330Z,7.82
2022-11-29T00:11:38.291Z,7.82
2022-11-29T00:14:06.703Z,7.85
2022-11-29T00:16:34.593Z,7.74
2022-11-29T00:19:02.379Z,7.83
2022-11-29T00:21:29.845Z,7.78
2022-11-29T00:23:57.079Z,7.75
2022-11-29T00:26:24.414Z,7.73
2022-11-29T00:28:51.832Z,7.79
2022-11-29T00:31:26.353Z,7.76
2022-11-29T00:33:53.492Z,7.75
2022-11-29T00:36:20.693Z,7.75
2022-11-29T00:38:47.848Z,7.69
2022-11-29T00:41:15.123Z,7.75
2022-11-29T00:43:42.166Z,7.72
2022-11-29T00:46:09.685Z,7.68
2022-11-29T00:48:37.212Z,7.67
2022-11-29T00:51:05.609Z,7.67
2022-11-29T00:53:34.320Z,7.63
2022-11-29T00:56:01.522Z,7.67
2022-11-29T00:58:29.147Z,7.65
2022-11-29T01:00:56.743Z,7.56
2022-11-29T01:03:24.663Z,7.66
2022-11-29T01:05:52.058Z,7.50
2022-11-29T01:08:19.492Z,7.59
2022-11-29T01:10:46.683Z,7.55
2022-11-29T01:13:13.623Z,7.59
2022-11-29T01:15:40.841Z,7.54
2022-11-29T01:18:07.822Z,7.38
2022-11-29T01:20:34.732Z,7.52
2022-11-29T01:23:01.783Z,7.50
2022-11-29T01:25:29.573Z,7.35
2022-11-29T01:27:56.623Z,7.41
2022-11-29T01:30:24.169Z,7.43
2022-11-29T01:32:51.582Z,7.37
2022-11-29T01:35:18.513Z,7.25
2022-11-29T01:37:45.497Z,7.29
2022-11-29T01:40:14.140Z,7.19
2022-11-29T01:42:41.333Z,7.22
2022-11-29T01:45:26.447Z,7.23
2022-11-29T01:47:56.580Z,7.15
2022-11-29T01:50:23.799Z,7.16
2022-11-29T01:52:51.221Z,7.13
2022-11-29T01:55:18.704Z,7.11
2022-11-29T01:57:46.062Z,7.16
2022-11-29T02:00:16.772Z,7.15
2022-11-29T02:02:47.120Z,7.28
2022-11-29T02:05:15.612Z,7.15
2022-11-29T02:07:44.964Z,7.02
2022-11-29T02:10:12.060Z,7.05
2022-11-29T02:12:54.804Z,7.11
2022-11-29T02:15:59.877Z,6.96
2022-11-29T02:18:51.703Z,7.11
2022-11-29T02:21:28.402Z,7.09
2022-11-29T02:24:13.893Z,7.05
2022-11-29T02:27:16.303Z,7.00
2022-11-29T02:29:58.722Z,6.95
2022-11-29T02:32:31.953Z,6.89
2022-11-29T02:35:41.092Z,6.86
2022-11-29T02:38:23.152Z,6.84
2022-11-29T02:41:22.974Z,6.82
2022-11-29T02:43:52.773Z,6.82
2022-11-29T02:46:43.182Z,6.73
2022-11-29T02:49:28.651Z,6.73
2022-11-29T02:52:06.320Z,6.65
2022-11-29T02:54:45.917Z,6.67
2022-11-29T02:57:35.002Z,6.65
2022-11-29T03:00:06.929Z,6.63
2022-11-29T03:02:39.168Z,6.58
2022-11-29T03:05:30.616Z,6.64
2022-11-29T03:08:10.820Z,6.58
2022-11-29T03:11:03.911Z,6.54
2022-11-29T03:14:06.272Z,6.54
2022-11-29T03:17:06.113Z,6.64
2022-11-29T03:20:07.410Z,6.59
2022-11-29T03:22:48.422Z,6.56
2022-11-29T03:25:40.375Z,6.60
2022-11-29T03:28:23.193Z,6.50
2022-11-29T03:31:16.816Z,6.56
2022-11-29T03:33:55.242Z,6.52
2022-11-29T03:36:28.253Z,6.56
2022-11-29T03:38:58.101Z,6.51
2022-11-29T03:41:46.722Z,6.45
2022-11-29T03:44:18.254Z,6.39
2022-11-29T03:46:59.112Z,6.35
2022-11-29T03:49:31.626Z,6.31
2022-11-29T03:52:07.562Z,6.23
2022-11-29T03:54:56.863Z,6.16
2022-11-29T03:57:35.263Z,6.18
2022-11-29T04:00:07.192Z,6.14
2022-11-29T04:02:57.885Z,6.14
2022-11-29T04:05:34.190Z,6.03
2022-11-29T04:08:20.023Z,6.03
2022-11-29T04:11:03.795Z,5.98
2022-11-29T04:13:57.792Z,5.95
2022-11-29T04:16:48.925Z,5.92
2022-11-29T04:19:30.544Z,5.91
2022-11-29T04:22:35.003Z,5.94
2022-11-29T04:25:19.533Z,5.97
2022-11-29T04:28:24.053Z,5.91
2022-11-29T04:31:00.908Z,5.94
2022-11-29T04:33:55.571Z,5.83
2022-11-29T04:36:28.494Z,5.93
2022-11-29T04:39:37.023Z,5.85
2022-11-29T04:42:29.162Z,5.85
2022-11-29T04:45:15.200Z,5.84
2022-11-29T04:47:51.082Z,5.88
2022-11-29T04:50:21.692Z,5.91
2022-11-29T04:53:17.203Z,5.81
2022-11-29T04:56:07.190Z,5.82
2022-11-29T04:58:36.531Z,5.85
2022-11-29T05:01:24.453Z,5.87
2022-11-29T05:04:03.433Z,5.86
2022-11-29T05:06:42.173Z,5.80
2022-11-29T05:09:32.321Z,5.70
2022-11-29T05:12:13.973Z,5.72
2022-11-29T05:14:55.693Z,5.72
2022-11-29T05:17:33.572Z,5.78
2022-11-29T05:20:15.772Z,5.96
2022-11-29T05:22:46.180Z,5.72
2022-11-29T05:25:36.414Z,5.57
2022-11-29T05:28:10.655Z,5.67
2022-11-29T05:31:33.702Z,5.65
2022-11-29T05:34:34.672Z,5.60
2022-11-29T05:37:32.073Z,5.53
2022-11-29T05:40:01.972Z,5.52
2022-11-29T05:42:42.942Z,5.65
2022-11-29T05:45:31.113Z,5.59
2022-11-29T05:48:14.330Z,5.51
2022-11-29T05:51:04.452Z,5.48
2022-11-29T05:53:55.652Z,5.56
2022-11-29T05:57:00.840Z,5.49
2022-11-29T05:59:29.533Z,5.52
2022-11-29T06:01:59.319Z,5.46
2022-11-29T06:04:57.677Z,5.49
2022-11-29T06:07:41.123Z,5.47
2022-11-29T06:10:17.971Z,5.53
2022-11-29T06:13:22.560Z,5.55
2022-11-29T06:16:19.531Z,5.56
2022-11-29T06:19:05.042Z,5.63
2022-11-29T06:21:54.354Z,5.57
2022-11-29T06:24:40.510Z,5.65
2022-11-29T06:27:32.242Z,5.60
2022-11-29T06:30:09.811Z,5.65
2022-11-29T06:32:52.992Z,5.70
2022-11-29T06:35:46.012Z,5.68
2022-11-29T06:38:40.114Z,5.59
2022-11-29T06:41:07.823Z,5.51
2022-11-29T06:43:35.422Z,5.57
2022-11-29T06:46:46.031Z,5.53
2022-11-29T06:49:15.451Z,5.60
2022-11-29T06:52:10.991Z,5.65
2022-11-29T06:55:07.994Z,5.68
2022-11-29T06:57:53.101Z,5.50
2022-11-29T07:00:31.919Z,5.57
2022-11-29T07:03:17.510Z,5.60
2022-11-29T07:05:44.773Z,5.63
2022-11-29T07:08:23.512Z,5.57
2022-11-29T07:10:54.204Z,5.66
2022-11-29T07:13:21.749Z,5.63
2022-11-29T07:15:57.192Z,5.61
2022-11-29T07:19:09.110Z,5.61
2022-11-29T07:21:46.402Z,5.60
2022-11-29T07:24:43.121Z,5.71
2022-11-29T07:27:20.665Z,5.53
2022-11-29T07:30:05.374Z,5.46
2022-11-29T07:33:00.312Z,5.58
2022-11-29T07:35:46.729Z,5.52
2022-11-29T07:38:44.893Z,5.45
2022-11-29T07:41:33.533Z,5.40
2022-11-29T07:44:28.049Z,5.40
2022-11-29T07:46:55.015Z,5.40
2022-11-29T07:49:21.724Z,5.42
2022-11-29T07:51:49.042Z,5.32
2022-11-29T07:54:18.475Z,5.43
2022-11-29T07:56:45.567Z,5.44
2022-11-29T07:59:13.201Z,5.46
2022-11-29T08:01:41.068Z,5.49
2022-11-29T08:04:09.171Z,5.40
2022-11-29T08:06:37.178Z,5.57
2022-11-29T08:09:04.547Z,5.62
2022-11-29T08:11:31.847Z,5.69
2022-11-29T08:14:02.761Z,5.55
2022-11-29T08:16:30.083Z,5.36
2022-11-29T08:18:56.792Z,5.53
2022-11-29T08:21:23.691Z,5.37
2022-11-29T08:23:50.877Z,5.55
2022-11-29T08:26:19.251Z,5.56
2022-11-29T08:28:46.416Z,5.59
2022-11-29T08:31:14.051Z,5.54
2022-11-29T08:33:43.082Z,5.56
2022-11-29T08:36:13.607Z,5.55
2022-11-29T08:38:40.756Z,5.51
2022-11-29T08:41:09.124Z,5.39
2022-11-29T08:43:36.106Z,5.60
2022-11-29T08:46:03.059Z,5.63
2022-11-29T08:48:29.967Z,5.70
2022-11-29T08:50:57.337Z,5.63
2022-11-29T08:53:44.881Z,5.56
2022-11-29T08:56:59.639Z,5.62
2022-11-29T08:59:00.706Z,5.66
2022-11-29T09:01:29.621Z,5.69
2022-11-29T09:03:59.609Z,5.67
2022-11-29T09:06:28.838Z,5.57
2022-11-29T09:08:56.964Z,5.65
2022-11-29T09:11:25.809Z,5.71
2022-11-29T09:13:55.108Z,5.78
2022-11-29T09:16:25.789Z,5.69
2022-11-29T09:18:56.306Z,5.71
2022-11-29T09:21:25.179Z,5.76
2022-11-29T09:23:59.570Z,5.74
2022-11-29T09:26:29.557Z,5.68
2022-11-29T09:29:01.397Z,5.67
2022-11-29T09:31:29.836Z,5.90
2022-11-29T09:33:57.235Z,5.79
2022-11-29T09:36:28.557Z,5.79
2022-11-29T09:38:57.808Z,5.91
2022-11-29T09:42:03.060Z,5.99
2022-11-29T09:44:38.259Z,6.10
2022-11-29T09:47:20.838Z,6.18
2022-11-29T09:50:17.396Z,6.26
2022-11-29T09:53:12.656Z,6.50
2022-11-29T09:56:17.357Z,6.60
2022-11-29T09:59:09.890Z,6.48
2022-11-29T10:01:43.555Z,6.64
2022-11-29T10:04:16.204Z,6.77
2022-11-29T10:06:54.528Z,6.86
2022-11-29T10:09:37.818Z,6.76
2022-11-29T10:12:20.703Z,6.88
2022-11-29T10:14:58.368Z,6.98
2022-11-29T10:17:34.676Z,6.96
2022-11-29T10:20:23.377Z,7.10
2022-11-29T10:22:55.836Z,7.08
2022-11-29T10:25:36.699Z,7.14
2022-11-29T10:28:05.636Z,7.38
2022-11-29T10:30:34.676Z,7.74
2022-11-29T10:33:02.978Z,7.79
2022-11-29T10:35:30.747Z,7.92
2022-11-29T10:38:29.865Z,8.01
2022-11-29T10:40:50.588Z,7.96
2022-11-29T10:43:17.901Z,7.97
2022-11-29T10:45:51.154Z,7.96
2022-11-29T10:48:20.625Z,7.91
2022-11-29T10:50:49.937Z,7.88
2022-11-29T10:53:25.466Z,7.98
2022-11-29T10:56:01.207Z,7.98
2022-11-29T10:58:30.923Z,8.07
2022-11-29T11:01:01.341Z,8.13
2022-11-29T11:03:31.164Z,8.16
2022-11-29T11:06:07.116Z,8.22
2022-11-29T11:08:35.358Z,8.21
2022-11-29T11:11:04.679Z,8.13
2022-11-29T11:13:32.938Z,8.14
2022-11-29T11:16:09.975Z,8.34
2022-11-29T11:18:38.357Z,8.52
2022-11-29T11:21:09.797Z,8.51
2022-11-29T11:23:43.350Z,8.54
2022-11-29T11:26:13.757Z,8.51
2022-11-29T11:28:49.665Z,8.56
2022-11-29T11:31:26.870Z,8.24
2022-11-29T11:33:53.667Z,8.45
2022-11-29T11:36:20.381Z,8.50
2022-11-29T11:38:57.276Z,8.60
2022-11-29T11:41:45.260Z,8.59
2022-11-29T11:44:58.554Z,8.76
2022-11-29T11:47:28.002Z,8.94
2022-11-29T11:50:02.369Z,8.85
2022-11-29T11:52:34.756Z,8.79
2022-11-29T11:55:26.746Z,8.74
2022-11-29T11:58:14.325Z,8.82
2022-11-29T12:03:38.931Z,9.27
2022-11-29T12:06:24.771Z,9.38
2022-11-29T12:08:54.738Z,9.51
2022-11-29T12:11:22.334Z,9.67
2022-11-29T12:13:55.181Z,9.50
2022-11-29T12:16:28.379Z,9.64
2022-11-29T12:19:07.662Z,9.74
2022-11-29T12:21:38.855Z,9.89
2022-11-29T12:24:31.172Z,10.03
2022-11-29T12:27:03.897Z,10.41
2022-11-29T12:29:33.224Z,10.30
2022-11-29T12:32:37.051Z,10.27
2022-11-29T12:35:25.184Z,10.09
2022-11-29T12:38:00.134Z,9.77
2022-11-29T12:40:36.973Z,9.66
2022-11-29T12:43:11.744Z,9.60
2022-11-29T12:45:54.245Z,9.49
2022-11-29T12:48:41.116Z,9.46
2022-11-29T12:51:16.133Z,9.60
2022-11-29T12:53:59.775Z,9.48
2022-11-29T12:56:28.396Z,9.49
2022-11-29T12:59:17.856Z,9.52
2022-11-29T13:02:16.203Z,9.48
2022-11-29T13:04:56.527Z,9.42
2022-11-29T13:07:57.978Z,9.48
2022-11-29T13:10:40.355Z,9.31
2022-11-29T13:13:18.205Z,9.18
2022-11-29T13:16:04.874Z,9.26
2022-11-29T13:18:55.015Z,9.18
2022-11-29T13:21:48.321Z,9.15
2022-11-29T13:24:26.205Z,9.01
2022-11-29T13:26:53.734Z,9.01
2022-11-29T13:29:22.615Z,8.97
2022-11-29T13:31:50.349Z,8.93
2022-11-29T13:34:25.451Z,8.77
2022-11-29T13:37:19.293Z,8.73
2022-11-29T13:39:52.405Z,8.61
2022-11-29T13:42:34.901Z,8.45
2022-11-29T13:45:16.685Z,8.38
2022-11-29T13:47:58.683Z,8.35
2022-11-29T13:50:46.136Z,8.39
2022-11-29T13:53:20.234Z,8.32
2022-11-29T13:56:02.013Z,8.09
2022-11-29T13:58:29.353Z,8.04
2022-11-29T14:01:02.551Z,8.00
2022-11-29T14:03:31.037Z,7.91
2022-11-29T14:06:37.555Z,7.84
2022-11-29T14:09:19.829Z,7.65
2022-11-29T14:11:52.175Z,7.76
2022-11-29T14:14:40.333Z,7.72
2022-11-29T14:17:59.745Z,7.70
2022-11-29T14:20:28.904Z,7.68
2022-11-29T14:23:04.508Z,7.65
2022-11-29T14:25:51.024Z,7.54
2022-11-29T14:28:21.900Z,7.58
2022-11-29T14:31:02.103Z,7.60
2022-11-29T14:33:47.685Z,7.57
2022-11-29T14:36:14.459Z,7.53
2022-11-29T14:39:14.943Z,7.54
2022-11-29T14:42:04.413Z,7.61
2022-11-29T14:44:32.784Z,7.65
2022-11-29T14:47:05.883Z,7.61
2022-11-29T14:49:39.969Z,7.63
2022-11-29T14:52:19.232Z,7.60
2022-11-29T14:54:56.148Z,7.43
2022-11-29T14:57:52.891Z,7.47
2022-11-29T15:00:21.949Z,7.45
2022-11-29T15:03:10.243Z,7.40
2022-11-29T15:06:10.549Z,7.24
2022-11-29T15:09:02.954Z,7.08
2022-11-29T15:11:37.355Z,7.03
2022-11-29T15:14:16.573Z,7.02
2022-11-29T15:17:08.294Z,6.95
2022-11-29T15:20:13.474Z,6.88
2022-11-29T15:22:52.874Z,6.96
2022-11-29T15:25:23.226Z,6.93
2022-11-29T15:27:56.107Z,6.77
2022-11-29T15:30:40.628Z,6.80
2022-11-29T15:33:41.198Z,6.78
2022-11-29T15:36:25.334Z,6.71
2022-11-29T15:38:57.762Z,6.59
2022-11-29T15:41:32.924Z,6.60
2022-11-29T15:44:05.184Z,6.53
2022-11-29T15:46:37.263Z,6.34
2022-11-29T15:49:25.840Z,6.49
2022-11-29T15:52:00.642Z,6.37
2022-11-29T15:54:56.063Z,6.35
2022-11-29T15:57:44.240Z,6.34
2022-11-29T16:00:23.773Z,6.19
2022-11-29T16:02:55.004Z,6.26
2022-11-29T16:05:37.153Z,6.14
2022-11-29T16:08:10.830Z,6.18
2022-11-29T16:10:51.664Z,6.16
2022-11-29T16:13:35.857Z,6.12
2022-11-29T16:16:27.665Z,6.08
2022-11-29T16:19:02.014Z,5.91
2022-11-29T16:21:33.744Z,5.81
2022-11-29T16:24:14.956Z,5.77
2022-11-29T16:26:48.934Z,5.73
2022-11-29T16:29:38.305Z,5.77
2022-11-29T16:32:31.335Z,5.86
2022-11-29T16:35:30.109Z,5.95
2022-11-29T16:38:01.545Z,5.97
2022-11-29T16:40:36.758Z,5.93
2022-11-29T16:43:06.348Z,5.94
2022-11-29T16:45:43.402Z,6.04
2022-11-29T16:48:26.942Z,6.01
2022-11-29T16:51:49.572Z,6.15
2022-11-29T16:54:26.193Z,6.23
2022-11-29T16:56:57.039Z,6.23
2022-11-29T16:59:28.030Z,6.29
2022-11-29T17:01:57.069Z,6.30
2022-11-29T17:04:26.215Z,6.29
2022-11-29T17:06:55.970Z,6.22
2022-11-29T17:09:29.220Z,6.20
2022-11-29T17:12:00.189Z,6.31
2022-11-29T17:14:33.814Z,6.49
2022-11-29T17:17:01.125Z,6.53
2022-11-29T17:19:31.358Z,6.49
2022-11-29T17:21:59.713Z,6.49
2022-11-29T17:24:26.744Z,6.53
2022-11-29T17:26:54.093Z,6.54
2022-11-29T17:29:21.472Z,6.51
2022-11-29T17:31:50.789Z,6.47
2022-11-29T17:34:18.634Z,6.48
2022-11-29T17:36:46.168Z,6.52
2022-11-29T17:39:15.774Z,6.45
2022-11-29T17:41:43.237Z,6.54
2022-11-29T17:44:10.478Z,6.68
2022-11-29T17:46:38.303Z,6.80
2022-11-29T17:49:07.673Z,6.80
2022-11-29T17:51:53.890Z,6.87
2022-11-29T17:54:22.601Z,6.86
2022-11-29T17:56:50.942Z,6.95
2022-11-29T17:59:18.344Z,6.91
2022-11-29T18:01:47.559Z,6.83
2022-11-29T18:04:14.889Z,6.96
2022-11-29T18:06:41.984Z,6.98
2022-11-29T18:09:10.656Z,7.00
2022-11-29T18:11:48.147Z,6.97
2022-11-29T18:14:18.440Z,7.09
2022-11-29T18:16:45.743Z,7.15
2022-11-29T18:19:16.724Z,7.14
2022-11-29T18:21:44.557Z,7.13
2022-11-29T18:24:11.872Z,7.17
2022-11-29T18:26:40.164Z,7.20
2022-11-29T18:29:07.915Z,7.19
2022-11-29T18:31:37.694Z,7.17
2022-11-29T18:34:07.321Z,7.13
2022-11-29T18:36:37.904Z,7.15
2022-11-29T18:39:09.014Z,7.20
2022-11-29T18:41:37.434Z,7.20
2022-11-29T18:44:09.876Z,7.27
2022-11-29T18:46:38.652Z,7.15
2022-11-29T18:49:08.192Z,7.18
2022-11-29T18:51:36.334Z,7.21
2022-11-29T18:54:05.588Z,7.23
2022-11-29T18:56:35.204Z,7.38
2022-11-29T18:59:04.812Z,7.37
2022-11-29T19:01:34.287Z,7.39
2022-11-29T19:04:02.324Z,7.40
2022-11-29T19:06:37.354Z,7.51
2022-11-29T19:09:07.906Z,7.52
2022-11-29T19:11:35.083Z,7.56
2022-11-29T19:14:05.510Z,7.59
2022-11-29T19:16:34.543Z,7.61
2022-11-29T19:19:02.347Z,7.55
2022-11-29T19:21:35.084Z,7.51
2022-11-29T19:24:04.095Z,7.73
2022-11-29T19:26:32.421Z,7.54
2022-11-29T19:29:00.840Z,7.56
2022-11-29T19:31:28.380Z,7.73
2022-11-29T19:33:56.551Z,7.69
2022-11-29T19:36:25.886Z,7.60
2022-11-29T19:38:54.655Z,7.45
2022-11-29T19:41:26.537Z,7.58
2022-11-29T19:43:56.584Z,7.64
2022-11-29T19:46:28.928Z,7.66
2022-11-29T19:48:57.828Z,7.56
2022-11-29T19:51:26.347Z,7.48
2022-11-29T19:53:56.516Z,7.45
2022-11-29T19:56:24.294Z,7.42
2022-11-29T19:58:51.673Z,7.39
2022-11-29T20:01:23.322Z,7.36
2022-11-29T20:03:50.937Z,7.26
2022-11-29T20:06:19.293Z,7.29
2022-11-29T20:08:47.225Z,7.37
2022-11-29T20:11:19.566Z,7.36
2022-11-29T20:14:00.453Z,7.35
2022-11-29T20:16:29.214Z,7.39
2022-11-29T20:18:57.686Z,7.35
2022-11-29T20:21:28.246Z,7.45
2022-11-29T20:24:02.092Z,7.50
2022-11-29T20:26:31.306Z,7.51
2022-11-29T20:28:59.555Z,7.51
2022-11-29T20:31:26.813Z,7.49
2022-11-29T20:33:57.689Z,7.53
2022-11-29T20:36:32.083Z,7.49
2022-11-29T20:39:29.418Z,7.47
2022-11-29T20:42:27.564Z,7.45
2022-11-29T20:44:57.743Z,7.37
2022-11-29T20:47:47.075Z,7.41
2022-11-29T20:50:23.275Z,7.43
2022-11-29T20:53:16.758Z,7.40
2022-11-29T20:55:47.893Z,7.39
2022-11-29T20:58:16.475Z,7.35
2022-11-29T21:00:43.937Z,7.28
2022-11-29T21:03:19.060Z,7.35
2022-11-29T21:05:47.022Z,7.38
2022-11-29T21:08:15.373Z,7.42
2022-11-29T21:10:42.783Z,7.40
2022-11-29T21:13:13.884Z,7.35
2022-11-29T21:15:41.862Z,7.39
2022-11-29T21:18:19.254Z,7.35
2022-11-29T21:20:49.654Z,7.23
2022-11-29T21:23:30.683Z,7.31
2022-11-29T21:26:23.534Z,7.40
2022-11-29T21:29:02.956Z,7.42
2022-11-29T21:31:30.704Z,7.42
2022-11-29T21:33:58.235Z,7.46
2022-11-29T21:36:25.825Z,7.43
2022-11-29T21:38:55.250Z,7.38
2022-11-29T21:41:23.824Z,7.23
2022-11-29T21:44:06.067Z,7.24
2022-11-29T21:46:35.428Z,7.14
2022-11-29T21:49:02.400Z,7.09
2022-11-29T21:51:29.755Z,7.09
2022-11-29T21:53:56.693Z,7.27
2022-11-29T21:56:23.993Z,7.38
2022-11-29T21:58:50.987Z,7.40
2022-11-29T22:01:20.322Z,7.30
2022-11-29T22:03:47.813Z,7.38
2022-11-29T22:06:18.769Z,7.32
2022-11-29T22:08:46.033Z,7.32
2022-11-29T22:11:16.196Z,7.41
2022-11-29T22:14:02.996Z,7.28
2022-11-29T22:16:31.289Z,7.45
2022-11-29T22:18:58.187Z,7.47
2022-11-29T22:21:25.173Z,7.45
2022-11-29T22:23:52.686Z,7.46
2022-11-29T22:26:21.893Z,7.51
2022-11-29T22:28:49.113Z,7.48
2022-11-29T22:31:16.739Z,7.42
2022-11-29T22:33:43.544Z,7.51
2022-11-29T22:36:12.278Z,7.50
2022-11-29T22:38:40.156Z,7.50
2022-11-29T22:41:09.909Z,7.47
2022-11-29T22:43:38.614Z,7.43
2022-11-29T22:46:16.132Z,7.48
2022-11-29T22:48:44.774Z,7.35
2022-11-29T22:51:17.635Z,7.48
2022-11-29T22:53:50.545Z,7.56
2022-11-29T22:56:18.214Z,7.61
2022-11-29T22:58:46.053Z,7.68
2022-11-29T23:01:18.201Z,7.64
2022-11-29T23:03:48.594Z,7.70
2022-11-29T23:06:18.042Z,7.73
2022-11-29T23:08:46.294Z,7.65
2022-11-29T23:11:18.974Z,7.59
2022-11-29T23:13:46.542Z,7.64
2022-11-29T23:16:16.687Z,7.60
2022-11-29T23:18:45.965Z,7.61
2022-11-29T23:21:14.186Z,7.62
2022-11-29T23:23:41.986Z,7.48
2022-11-29T23:26:09.845Z,7.46
2022-11-29T23:28:37.352Z,7.50
2022-11-29T23:31:04.205Z,7.32
2022-11-29T23:33:31.283Z,7.44
2022-11-29T23:36:03.017Z,7.57
2022-11-29T23:38:30.743Z,7.43
2022-11-29T23:40:57.992Z,7.50
2022-11-29T23:43:25.414Z,7.57
2022-11-29T23:45:52.994Z,7.59
2022-11-29T23:48:20.094Z,7.47
2022-11-29T23:50:47.374Z,7.45
2022-11-29T23:53:16.093Z,7.54
2022-11-29T23:55:43.304Z,7.51
2022-11-29T23:58:10.764Z,7.49
